Time;durP1;ratioP1;P1;durP2;ratioP2;P2;SDS_P1;SDS_P2;PMS_P1;PMS_P2;Temp;Humidity;BMP_temperature;BMP_pressure;BME280_temperature;BME280_humidity;BME280_pressure;Samples;Min_cycle;Max_cycle;Signal;HPM_P1;HPM_P2
2021/12/05 00:24:15;;;;;;;17.00;8.18;;;;;;;-0.47;100.00;99527.00;15290891;19;20015;-60
2021/12/05 00:29:25;;;;;;;16.73;7.82;;;;;;;-0.45;100.00;99523.66;15292596;19;20066;-60
2021/12/05 00:34:46;;;;;;;18.77;8.32;;;;;;;-0.44;100.00;99524.53;15290063;19;20081;-60
2021/12/05 01:16:40;;;;;;;20.77;9.30;;;;;;;-0.37;100.00;99558.28;15301860;19;20022;-59
2021/12/05 01:21:47;;;;;;;18.77;8.60;;;;;;;-0.36;100.00;99566.91;15300750;19;20018;-61
2021/12/05 01:32:02;;;;;;;23.10;9.30;;;;;;;-0.32;100.00;99573.03;15301846;19;20018;-60
2021/12/05 02:40:51;;;;;;;23.35;9.13;;;;;;;-0.14;100.00;99591.78;15296132;19;20014;-60
2021/12/05 02:45:57;;;;;;;20.30;9.02;;;;;;;-0.13;100.00;99597.84;15295065;19;20019;-60
2021/12/05 02:51:02;;;;;;;19.23;9.20;;;;;;;-0.08;100.00;99606.59;15294645;19;20038;-60
2021/12/05 02:56:05;;;;;;;21.42;9.25;;;;;;;-0.05;100.00;99602.44;15296195;19;20026;-60
2021/12/05 03:01:19;;;;;;;18.88;8.68;;;;;;;-0.05;100.00;99610.16;15297149;19;20082;-60
2021/12/05 03:06:26;;;;;;;17.50;8.25;;;;;;;-0.03;100.00;99615.38;15299448;19;20094;-60
2021/12/05 03:11:30;;;;;;;18.27;9.10;;;;;;;-0.03;100.00;99617.97;15295076;19;20018;-61
2021/12/05 03:16:34;;;;;;;18.52;8.48;;;;;;;-0.09;100.00;99618.59;15293952;19;20082;-61
2021/12/05 03:21:39;;;;;;;22.70;8.95;;;;;;;-0.05;100.00;99615.31;15290938;19;20045;-59
2021/12/05 03:26:46;;;;;;;25.33;10.77;;;;;;;-0.02;100.00;99602.56;15292100;19;20018;-61
2021/12/05 03:31:50;;;;;;;23.92;9.82;;;;;;;0.05;100.00;99600.28;15290161;19;20355;-61
2021/12/05 03:36:57;;;;;;;20.05;8.85;;;;;;;0.11;100.00;99606.53;15291680;19;20090;-60
2021/12/05 03:42:01;;;;;;;16.92;7.93;;;;;;;0.09;100.00;99607.28;15291049;19;20530;-61
2021/12/05 03:47:05;;;;;;;25.92;9.98;;;;;;;0.04;100.00;99612.25;15291851;19;20031;-60
2021/12/05 03:52:14;;;;;;;24.05;8.77;;;;;;;0.05;100.00;99628.59;15289747;19;20015;-60
2021/12/05 03:57:16;;;;;;;21.00;9.32;;;;;;;0.07;100.00;99625.25;15289910;19;20022;-60
2021/12/05 04:02:19;;;;;;;18.38;8.40;;;;;;;0.13;100.00;99625.47;15290206;19;20014;-60
2021/12/05 04:07:22;;;;;;;24.50;9.20;;;;;;;0.17;100.00;99629.94;15290415;19;20038;-62
2021/12/05 04:12:25;;;;;;;19.20;8.35;;;;;;;0.20;100.00;99638.63;15290036;19;20078;-59
2021/12/05 04:17:27;;;;;;;23.98;8.13;;;;;;;0.24;100.00;99643.97;15287555;19;20027;-60
2021/12/05 04:22:31;;;;;;;21.48;9.13;;;;;;;0.27;100.00;99651.81;15290225;19;20023;-59
2021/12/05 04:27:33;;;;;;;15.48;8.25;;;;;;;0.29;100.00;99655.31;15287187;19;20054;-60
2021/12/05 04:32:35;;;;;;;19.75;9.00;;;;;;;0.29;100.00;99664.75;15287631;19;20483;-61
2021/12/05 04:37:37;;;;;;;23.00;10.27;;;;;;;0.33;100.00;99666.59;15287733;19;20014;-60
2021/12/05 04:42:40;;;;;;;25.45;10.52;;;;;;;0.35;100.00;99670.13;15289110;19;20018;-60
2021/12/05 04:47:44;;;;;;;19.98;9.73;;;;;;;0.52;100.00;99674.25;15291013;19;20010;-60
2021/12/05 04:52:47;;;;;;;25.00;10.35;;;;;;;0.77;100.00;99680.38;15302943;19;20021;-60
2021/12/05 04:57:50;;;;;;;24.42;11.85;;;;;;;1.03;100.00;99686.50;15302032;19;20010;-61
2021/12/05 05:02:53;;;;;;;29.73;10.20;;;;;;;1.06;100.00;99696.94;15300494;19;20399;-61
2021/12/05 05:07:55;;;;;;;19.38;10.23;;;;;;;1.23;100.00;99701.84;15303257;19;20014;-61
2021/12/05 05:12:58;;;;;;;22.48;9.90;;;;;;;1.52;100.00;99709.78;15299505;19;20015;-61
2021/12/05 05:18:01;;;;;;;23.40;9.85;;;;;;;1.54;100.00;99714.16;15303225;19;20030;-60
2021/12/05 05:23:21;;;;;;;20.75;9.48;;;;;;;1.63;100.00;99715.34;15303479;19;20018;-60
2021/12/05 05:28:49;;;;;;;;;;;;;;;1.59;100.00;99725.53;15302838;19;20130;-61
2021/12/05 05:49:56;;;;;;;23.80;9.02;;;;;;;1.78;100.00;99741.69;15301332;19;20018;-60
2021/12/05 05:54:59;;;;;;;24.15;8.52;;;;;;;1.78;100.00;99754.59;15295453;19;20025;-61
2021/12/05 06:00:12;;;;;;;19.85;8.90;;;;;;;1.81;100.00;99764.16;15298660;19;20018;-61
2021/12/05 06:05:15;;;;;;;14.73;7.75;;;;;;;1.84;100.00;99774.59;15192989;19;2004349;-60
2021/12/05 06:10:22;;;;;;;16.88;8.15;;;;;;;1.78;100.00;99782.97;15299352;19;20026;-61
2021/12/05 06:15:27;;;;;;;17.75;7.82;;;;;;;1.74;100.00;99783.69;15296996;19;20424;-61
2021/12/05 06:20:30;;;;;;;16.67;7.57;;;;;;;1.73;100.00;99802.59;15293440;19;20578;-61
2021/12/05 06:25:36;;;;;;;14.02;6.82;;;;;;;1.66;100.00;99810.94;15295064;19;20116;-61
2021/12/05 06:30:55;;;;;;;15.77;7.88;;;;;;;1.72;100.00;99814.59;15291426;19;20401;-61
2021/12/05 06:41:52;;;;;;;16.83;7.15;;;;;;;1.71;100.00;99824.88;15293129;19;20039;-60
2021/12/05 06:46:56;;;;;;;15.18;6.55;;;;;;;1.69;100.00;99834.25;15296013;19;20014;-60
2021/12/05 06:51:58;;;;;;;15.75;6.47;;;;;;;1.73;100.00;99843.91;15293823;19;20018;-61
2021/12/05 06:57:00;;;;;;;13.20;7.03;;;;;;;1.79;100.00;99849.28;15296494;19;20022;-61
2021/12/05 07:02:02;;;;;;;20.42;7.32;;;;;;;1.79;100.00;99849.28;15285321;19;20038;-61
2021/12/05 07:07:06;;;;;;;14.13;6.50;;;;;;;1.81;100.00;99862.25;15294525;19;20038;-61
2021/12/05 07:22:48;;;;;;;16.38;7.53;;;;;;;1.77;100.00;99885.38;15295431;19;20534;-59
2021/12/05 07:43:51;;;;;;;18.67;6.97;;;;;;;-147.53;100.00;57128.34;15292801;19;20014;-59
2021/12/05 07:48:52;;;;;;;15.90;6.32;;;;;;;-147.53;100.00;57128.34;15290017;19;20011;-60
2021/12/05 07:54:09;;;;;;;16.38;7.30;;;;;;;-147.53;100.00;57128.34;15289220;19;20018;-59
2021/12/05 07:59:34;;;;;;;19.98;7.13;;;;;;;-147.53;100.00;57128.34;15289482;19;20010;-60
2021/12/05 08:15:23;;;;;;;15.68;6.60;;;;;;;-147.53;100.00;57128.34;15185997;19;2004238;-59
2021/12/05 08:20:27;;;;;;;16.27;6.80;;;;;;;-147.53;100.00;57128.34;15291173;19;20035;-59
2021/12/05 08:25:32;;;;;;;14.43;5.70;;;;;;;-147.53;100.00;57128.34;15291477;19;20027;-60
2021/12/05 08:30:36;;;;;;;22.48;7.50;;;;;;;-147.53;100.00;57128.34;15290524;19;20014;-60
2021/12/05 09:23:34;;;;;;;19.95;7.13;;;;;;;-147.53;100.00;57128.34;15269824;19;20431;-61
2021/12/05 10:11:58;;;;;;;;;;;;;;;-147.53;100.00;57128.34;15297667;19;20358;-59
2021/12/05 10:17:04;;;;;;;19.27;7.80;;;;;;;-147.53;100.00;57128.34;15289164;19;19923;-60
2021/12/05 10:38:42;;;;;;;28.40;10.00;;;;;;;-147.53;100.00;57128.34;15297958;19;19950;-60
2021/12/05 10:43:47;;;;;;;24.13;9.43;;;;;;;-147.53;100.00;57128.34;15297002;19;20031;-59
2021/12/05 10:49:03;;;;;;;21.27;9.13;;;;;;;-147.53;100.00;57128.34;15294416;19;20064;-59
2021/12/05 10:54:08;;;;;;;21.05;8.80;;;;;;;-147.53;100.00;57128.34;15294384;19;20086;-60
2021/12/05 10:59:11;;;;;;;27.30;11.30;;;;;;;-147.53;100.00;57128.34;15295737;19;20018;-60
2021/12/05 11:04:16;;;;;;;19.65;10.52;;;;;;;-147.53;100.00;57128.34;15293476;19;20098;-59
2021/12/05 11:09:33;;;;;;;24.73;10.52;;;;;;;-147.53;100.00;57128.34;15293160;19;20082;-61
2021/12/05 11:14:39;;;;;;;23.52;10.10;;;;;;;-147.53;100.00;57128.34;15293058;19;20542;-60
2021/12/05 11:19:47;;;;;;;19.35;10.32;;;;;;;-147.53;100.00;57128.34;15293948;19;20031;-59
2021/12/05 11:25:01;;;;;;;24.25;9.30;;;;;;;-147.53;100.00;57128.34;15294724;19;20010;-61
2021/12/05 11:30:13;;;;;;;17.92;9.48;;;;;;;-147.53;100.00;57128.34;15293370;19;20105;-60
2021/12/05 11:35:32;;;;;;;22.30;8.50;;;;;;;-147.53;100.00;57128.34;15290757;19;20013;-60
2021/12/05 11:40:42;;;;;;;21.42;9.82;;;;;;;-147.53;100.00;57128.34;15293337;19;20027;-60
2021/12/05 11:45:58;;;;;;;18.65;10.27;;;;;;;-147.53;100.00;57128.34;15292756;19;20007;-59
2021/12/05 11:51:15;;;;;;;20.60;9.65;;;;;;;-147.53;100.00;57128.34;15293243;19;20493;-61
2021/12/05 11:56:29;;;;;;;17.40;8.93;;;;;;;-147.53;100.00;57128.34;15290440;19;20018;-61
2021/12/05 12:01:43;;;;;;;16.88;8.07;;;;;;;-147.53;100.00;57128.34;15291579;19;20018;-61
2021/12/05 12:07:04;;;;;;;20.13;9.00;;;;;;;-147.53;100.00;57128.34;15290503;19;20015;-60
2021/12/05 12:12:06;;;;;;;;;;;;;;;-147.53;100.00;57128.34;15291860;19;20078;-61
2021/12/05 12:17:13;;;;;;;20.52;8.50;;;;;;;-147.53;100.00;57128.34;15291521;19;19974;-61
2021/12/05 12:22:19;;;;;;;29.33;12.52;;;;;;;-147.53;100.00;57128.34;15291443;19;20097;-60
2021/12/05 12:27:22;;;;;;;22.58;10.32;;;;;;;-147.53;100.00;57128.34;15291132;19;20094;-61
2021/12/05 12:32:36;;;;;;;17.38;8.20;;;;;;;-147.53;100.00;57128.34;15288758;19;20039;-59
2021/12/05 12:37:55;;;;;;;21.10;9.13;;;;;;;-147.53;100.00;57128.34;15288950;19;20010;-61
2021/12/05 12:42:56;;;;;;;19.10;8.98;;;;;;;-147.53;100.00;57128.34;15281904;19;20020;-61
2021/12/05 12:47:59;;;;;;;27.20;10.73;;;;;;;-147.53;100.00;57128.34;15285457;19;20074;-61
2021/12/05 12:53:17;;;;;;;22.42;10.07;;;;;;;-147.53;100.00;57128.34;15285962;19;20015;-60
2021/12/05 12:58:43;;;;;;;22.60;11.13;;;;;;;-147.53;100.00;57128.34;15286816;19;20721;-60
2021/12/05 13:10:21;;;;;;;43.72;13.70;;;;;;;-147.53;100.00;57128.34;15292732;19;20034;-61
2021/12/05 13:15:07;;;;;;;20.73;11.32;;;;;;;-147.53;100.00;57128.34;15298900;19;20078;-60
2021/12/05 13:20:11;;;;;;;25.80;12.20;;;;;;;-147.53;100.00;57128.34;15303333;19;20650;-61
2021/12/05 13:25:13;;;;;;;40.60;15.20;;;;;;;-147.53;100.00;57128.34;15302983;19;20658;-61
2021/12/05 13:30:33;;;;;;;33.83;13.30;;;;;;;-147.53;100.00;57128.34;15301231;19;20013;-60
2021/12/05 13:35:36;;;;;;;25.40;11.98;;;;;;;-147.53;100.00;57128.34;15297546;19;20094;-60
2021/12/05 13:40:40;;;;;;;31.70;13.70;;;;;;;-147.53;100.00;57128.34;15299400;19;20478;-61
2021/12/05 13:45:43;;;;;;;33.38;13.35;;;;;;;-147.53;100.00;57128.34;15302824;19;20010;-60
2021/12/05 13:50:56;;;;;;;34.58;13.25;;;;;;;-147.53;100.00;57128.34;15300773;19;20082;-61
2021/12/05 13:56:04;;;;;;;25.52;14.30;;;;;;;-147.53;100.00;57128.34;15297534;19;20014;-59
2021/12/05 14:01:08;;;;;;;35.08;14.95;;;;;;;-147.53;100.00;57128.34;15300113;19;20097;-60
2021/12/05 14:06:57;;;;;;;33.97;15.95;;;;;;;-147.53;100.00;57128.34;15300940;19;20085;-60
2021/12/05 14:11:58;;;;;;;37.13;16.00;;;;;;;-147.53;100.00;57128.34;15298489;19;20035;-60
2021/12/05 14:17:03;;;;;;;43.88;15.90;;;;;;;-147.53;100.00;57128.34;15299867;19;20538;-60
2021/12/05 14:22:09;;;;;;;29.45;14.48;;;;;;;-147.53;100.00;57128.34;15298866;19;20018;-60
2021/12/05 14:27:20;;;;;;;34.15;14.02;;;;;;;-147.53;100.00;57128.34;15297973;19;20563;-59
2021/12/05 14:32:31;;;;;;;29.50;14.15;;;;;;;-147.53;100.00;57128.34;15297323;19;20093;-60
2021/12/05 14:37:33;;;;;;;;;;;;;;;-147.53;100.00;57128.34;15297694;19;20014;-61
2021/12/05 14:42:38;;;;;;;33.53;14.23;;;;;;;-147.53;100.00;57128.34;15296944;19;19987;-60
2021/12/05 14:47:41;;;;;;;32.20;14.63;;;;;;;-147.53;100.00;57128.34;15296554;19;20094;-60
2021/12/05 14:52:45;;;;;;;34.35;15.82;;;;;;;-147.53;100.00;57128.34;15295169;19;20625;-61
2021/12/05 14:57:52;;;;;;;34.97;15.65;;;;;;;-147.53;100.00;57128.34;15297625;19;20042;-60
2021/12/05 15:03:30;;;;;;;40.47;16.45;;;;;;;-147.53;100.00;57128.34;15295880;19;20367;-59
2021/12/05 15:08:35;;;;;;;35.92;15.40;;;;;;;-147.53;100.00;57128.34;15288843;19;20014;-61
2021/12/05 15:13:37;;;;;;;39.83;16.13;;;;;;;-147.53;100.00;57128.34;15293818;19;20038;-60
2021/12/05 15:18:39;;;;;;;35.35;14.55;;;;;;;-147.53;100.00;57128.34;15295834;19;20771;-60
2021/12/05 15:23:41;;;;;;;38.53;15.98;;;;;;;-147.53;100.00;57128.34;15160068;19;20250;-59
2021/12/05 15:28:43;;;;;;;34.45;15.00;;;;;;;-147.53;100.00;57128.34;14991706;19;20022;-60
2021/12/05 15:33:46;;;;;;;35.83;13.85;;;;;;;-147.53;100.00;57128.34;15290091;19;20093;-60
2021/12/05 15:38:47;;;;;;;30.63;13.00;;;;;;;-147.53;100.00;57128.34;15294888;19;20089;-60
2021/12/05 15:43:49;;;;;;;41.70;14.88;;;;;;;-147.53;100.00;57128.34;15293948;19;20539;-59
2021/12/05 15:48:52;;;;;;;32.60;14.02;;;;;;;-147.53;100.00;57128.34;15291807;19;20022;-60
2021/12/05 15:53:57;;;;;;;38.95;14.55;;;;;;;-147.53;100.00;57128.34;15290792;19;20011;-60
2021/12/05 15:59:02;;;;;;;25.60;12.18;;;;;;;-147.53;100.00;57128.34;15291115;19;20565;-60
2021/12/05 16:04:17;;;;;;;23.38;10.57;;;;;;;-147.53;100.00;57128.34;15293208;19;20010;-60
2021/12/05 16:09:23;;;;;;;30.80;11.30;;;;;;;-147.53;100.00;57128.34;15290773;19;20018;-60
2021/12/05 16:14:35;;;;;;;23.63;10.50;;;;;;;-147.53;100.00;57128.34;15288683;19;20010;-59
2021/12/05 16:19:37;;;;;;;33.45;12.02;;;;;;;-147.53;100.00;57128.34;15290547;19;20081;-60
2021/12/05 16:24:54;;;;;;;29.38;12.60;;;;;;;-147.53;100.00;57128.34;15291284;19;20570;-59
2021/12/05 16:29:56;;;;;;;31.77;13.30;;;;;;;-147.53;100.00;57128.34;15289041;19;20027;-60
2021/12/05 16:34:58;;;;;;;32.50;13.10;;;;;;;-147.53;100.00;57128.34;15288827;19;20031;-60
2021/12/05 16:39:59;;;;;;;27.63;10.50;;;;;;;-147.53;100.00;57128.34;15291311;19;20021;-60
2021/12/05 16:45:01;;;;;;;23.25;11.65;;;;;;;-147.53;100.00;57128.34;15289818;19;20011;-59
2021/12/05 16:50:10;;;;;;;24.52;10.80;;;;;;;-147.53;100.00;57128.34;15290742;19;20570;-61
2021/12/05 16:55:29;;;;;;;22.20;10.68;;;;;;;-147.53;100.00;57128.34;15287850;19;20011;-60
2021/12/05 17:00:34;;;;;;;24.75;11.60;;;;;;;-147.53;100.00;57128.34;15288233;19;20037;-60
2021/12/05 17:05:46;;;;;;;23.98;10.60;;;;;;;-147.53;100.00;57128.34;15290623;19;20018;-60
2021/12/05 17:11:01;;;;;;;31.52;14.10;;;;;;;-147.53;100.00;57128.34;15287804;19;20602;-59
2021/12/05 17:16:15;;;;;;;20.50;9.70;;;;;;;-147.53;100.00;57128.34;15287018;19;20538;-60
2021/12/05 17:21:19;;;;;;;27.75;10.32;;;;;;;-147.53;100.00;57128.34;15289476;19;20025;-60
2021/12/05 17:26:32;;;;;;;22.13;9.88;;;;;;;-147.53;100.00;57128.34;15293768;19;20073;-60
2021/12/05 17:31:46;;;;;;;21.23;11.00;;;;;;;-147.53;100.00;57128.34;15290863;19;20446;-60
2021/12/05 17:37:06;;;;;;;24.45;11.05;;;;;;;-147.53;100.00;57128.34;15285482;19;20014;-60
2021/12/05 17:42:21;;;;;;;23.90;11.90;;;;;;;-147.53;100.00;57128.34;15284371;19;20082;-60
2021/12/05 17:47:24;;;;;;;22.98;9.57;;;;;;;-147.53;100.00;57128.34;15286925;19;20031;-60
2021/12/05 17:52:27;;;;;;;22.60;10.70;;;;;;;-147.53;100.00;57128.34;15285372;19;20014;-59
2021/12/05 17:57:51;;;;;;;21.70;10.70;;;;;;;-147.53;100.00;57128.34;15295357;19;20127;-60
2021/12/05 18:02:53;;;;;;;25.50;11.43;;;;;;;-147.53;100.00;57128.34;15298904;19;20058;-59
2021/12/05 18:07:59;;;;;;;22.00;10.30;;;;;;;-147.53;100.00;57128.34;15300273;19;20024;-59
2021/12/05 18:13:03;;;;;;;26.38;11.32;;;;;;;-147.53;100.00;57128.34;15297131;19;20013;-60
2021/12/05 18:18:22;;;;;;;;;;;;;;;-147.53;100.00;57128.34;15299934;19;20088;-59
2021/12/05 18:23:23;;;;;;;22.52;10.18;;;;;;;-147.53;100.00;57128.34;15297306;19;19970;-60
2021/12/05 18:28:25;;;;;;;20.35;8.52;;;;;;;-147.53;100.00;57128.34;15296135;19;20093;-60
2021/12/05 18:33:29;;;;;;;22.65;9.27;;;;;;;-147.53;100.00;57128.34;15297522;19;20082;-60
2021/12/05 18:38:33;;;;;;;17.52;8.25;;;;;;;-147.53;100.00;57128.34;15297322;19;20082;-60
2021/12/05 18:43:37;;;;;;;21.75;8.88;;;;;;;-147.53;100.00;57128.34;15297344;19;20031;-60
2021/12/05 18:48:41;;;;;;;24.25;9.77;;;;;;;-147.53;100.00;57128.34;15295564;19;20098;-59
2021/12/05 18:53:43;;;;;;;25.92;11.63;;;;;;;-147.53;100.00;57128.34;15294205;19;20098;-58
2021/12/05 18:58:45;;;;;;;22.77;11.25;;;;;;;-147.53;100.00;57128.34;15296627;19;20014;-60
2021/12/05 19:09:24;;;;;;;24.58;10.82;;;;;;;-147.53;100.00;57128.34;15292984;19;20039;-60
2021/12/05 19:14:33;;;;;;;21.50;10.45;;;;;;;-147.53;100.00;57128.34;15293445;19;20470;-60
2021/12/05 19:19:39;;;;;;;30.27;13.80;;;;;;;-147.53;100.00;57128.34;15294546;19;20011;-60
2021/12/05 19:24:42;;;;;;;25.73;11.60;;;;;;;-147.53;100.00;57128.34;15294185;19;20085;-59
2021/12/05 19:29:47;;;;;;;31.83;13.52;;;;;;;-147.53;100.00;57128.34;15292178;19;20479;-60
2021/12/05 19:34:49;;;;;;;25.13;11.02;;;;;;;-147.53;100.00;57128.34;15260290;19;20094;-60
2021/12/05 19:39:55;;;;;;;25.45;11.10;;;;;;;-147.53;100.00;57128.34;15066700;19;20531;-59
2021/12/05 19:44:58;;;;;;;24.15;11.50;;;;;;;-147.53;100.00;57128.34;14486725;19;20406;-59
2021/12/05 19:50:00;;;;;;;22.35;11.32;;;;;;;-147.53;100.00;57128.34;14931397;19;20078;-59
2021/12/05 19:55:04;;;;;;;29.55;12.68;;;;;;;-147.53;100.00;57128.34;14945367;19;20078;-59
2021/12/05 20:00:12;;;;;;;30.00;12.70;;;;;;;-147.53;100.00;57128.34;14763759;19;20625;-59
2021/12/05 20:05:18;;;;;;;26.65;11.07;;;;;;;-147.53;100.00;57128.34;14496025;19;20563;-59
2021/12/05 20:10:23;;;;;;;21.45;10.60;;;;;;;-147.53;100.00;57128.34;14801864;19;20042;-58
2021/12/05 20:15:25;;;;;;;26.35;12.52;;;;;;;-147.53;100.00;57128.34;14999487;19;20050;-58
2021/12/05 20:20:27;;;;;;;22.60;10.90;;;;;;;-147.53;100.00;57128.34;15116115;19;20577;-60
2021/12/05 20:25:30;;;;;;;22.00;10.90;;;;;;;-147.53;100.00;57128.34;15147023;19;20576;-60
2021/12/05 20:30:34;;;;;;;27.80;12.27;;;;;;;-147.53;100.00;57128.34;15148374;19;20616;-59
2021/12/05 20:35:38;;;;;;;25.35;10.27;;;;;;;-147.53;100.00;57128.34;15121803;19;20307;-60
2021/12/05 20:40:49;;;;;;;25.40;11.85;;;;;;;-147.53;100.00;57128.34;15151505;19;20006;-59
2021/12/05 20:45:54;;;;;;;30.05;11.82;;;;;;;-147.53;100.00;57128.34;15175683;19;20036;-59
2021/12/05 20:50:56;;;;;;;28.92;12.48;;;;;;;-147.53;100.00;57128.34;15287051;19;20439;-59
2021/12/05 20:55:58;;;;;;;29.90;12.07;;;;;;;-147.53;100.00;57128.34;15285473;19;20098;-59
2021/12/05 21:01:04;;;;;;;33.65;13.93;;;;;;;-147.53;100.00;57128.34;15287666;19;20077;-60
2021/12/05 21:06:08;;;;;;;30.17;12.98;;;;;;;-147.53;100.00;57128.34;15288577;19;20018;-60
2021/12/05 21:11:18;;;;;;;27.05;12.00;;;;;;;-147.53;100.00;57128.34;15287372;19;20027;-59
2021/12/05 21:16:20;;;;;;;31.75;13.02;;;;;;;-147.53;100.00;57128.34;15285752;19;20015;-59
2021/12/05 21:21:24;;;;;;;27.25;12.63;;;;;;;-147.53;100.00;57128.34;15286130;19;20120;-59
2021/12/05 21:26:26;;;;;;;28.95;12.77;;;;;;;-147.53;100.00;57128.34;15287789;19;20019;-59
2021/12/05 21:31:28;;;;;;;30.65;12.65;;;;;;;-147.53;100.00;57128.34;15294488;19;20368;-59
2021/12/05 21:36:30;;;;;;;27.20;12.43;;;;;;;-147.53;100.00;57128.34;15297943;19;20018;-60
2021/12/05 21:41:32;;;;;;;33.08;14.07;;;;;;;-147.53;100.00;57128.34;15299333;19;20031;-60
2021/12/05 21:46:34;;;;;;;34.92;14.57;;;;;;;-147.53;100.00;57128.34;15300801;19;20027;-59
2021/12/05 21:51:36;;;;;;;38.10;15.88;;;;;;;-147.53;100.00;57128.34;15298568;19;20428;-59
2021/12/05 21:56:37;;;;;;;35.67;14.93;;;;;;;-147.53;100.00;57128.34;15297154;19;20022;-59
2021/12/05 22:01:39;;;;;;;38.05;15.02;;;;;;;-147.53;100.00;57128.34;15296102;19;20070;-59
2021/12/05 22:06:41;;;;;;;38.50;14.88;;;;;;;-147.53;100.00;57128.34;15301401;19;20031;-57
2021/12/05 22:11:43;;;;;;;41.13;14.43;;;;;;;-147.53;100.00;57128.34;15299239;19;20019;-58
2021/12/05 22:16:45;;;;;;;47.85;16.65;;;;;;;-147.53;100.00;57128.34;15298948;19;20030;-59
2021/12/05 22:21:47;;;;;;;34.30;13.55;;;;;;;-147.53;100.00;57128.34;15295199;19;20014;-60
2021/12/05 22:26:49;;;;;;;43.08;16.75;;;;;;;-147.53;100.00;57128.34;15298397;19;20031;-59
2021/12/05 22:31:51;;;;;;;43.72;15.77;;;;;;;-147.53;100.00;57128.34;15295579;19;20497;-59
2021/12/05 22:36:53;;;;;;;35.55;14.90;;;;;;;-147.53;100.00;57128.34;15294879;19;20029;-59
2021/12/05 22:41:54;;;;;;;58.80;18.02;;;;;;;-147.53;100.00;57128.34;15293097;19;20585;-59
2021/12/05 22:46:57;;;;;;;56.78;17.55;;;;;;;-147.53;100.00;57128.34;15298562;19;20104;-59
2021/12/05 22:51:58;;;;;;;39.70;15.20;;;;;;;-147.53;100.00;57128.34;15295297;19;20018;-57
2021/12/05 22:57:01;;;;;;;49.35;17.30;;;;;;;-147.53;100.00;57128.34;15293431;19;20085;-58
2021/12/05 23:02:03;;;;;;;47.65;15.70;;;;;;;-147.53;100.00;57128.34;15293869;19;20731;-59
2021/12/05 23:07:06;;;;;;;51.20;16.50;;;;;;;-147.53;100.00;57128.34;15295513;19;20015;-59
2021/12/05 23:12:08;;;;;;;43.53;16.17;;;;;;;-147.53;100.00;57128.34;15293888;19;20031;-59
2021/12/05 23:17:10;;;;;;;41.97;15.00;;;;;;;-147.53;100.00;57128.34;15293537;19;20018;-59
2021/12/05 23:22:13;;;;;;;41.22;14.82;;;;;;;-147.53;100.00;57128.34;15292660;19;20018;-59
2021/12/05 23:27:15;;;;;;;39.13;13.98;;;;;;;-147.53;100.00;57128.34;15295213;19;20014;-60
2021/12/05 23:32:36;;;;;;;37.13;14.43;;;;;;;-147.53;100.00;57128.34;15291434;19;20725;-59
2021/12/05 23:37:38;;;;;;;44.45;13.88;;;;;;;-147.53;100.00;57128.34;15291125;19;20014;-59
2021/12/05 23:42:40;;;;;;;35.83;13.55;;;;;;;-147.53;100.00;57128.34;15292027;19;20077;-59
2021/12/05 23:47:44;;;;;;;34.50;14.07;;;;;;;-147.53;100.00;57128.34;15293939;19;20107;-59
2021/12/05 23:52:47;;;;;;;33.50;13.70;;;;;;;-147.53;100.00;57128.34;15287597;19;20031;-58
2021/12/05 23:57:49;;;;;;;40.80;14.07;;;;;;;-147.53;100.00;57128.34;15291545;19;20385;-58
